sensor_id;sensor_type;location;lat;lon;timestamp;P1;durP1;ratioP1;P2;durP2;ratioP2
86756;SDS011;77516;50.006;9.176;2024-03-29T00:00:01;1.50;;;0.82;;
86756;SDS011;77516;50.006;9.176;2024-03-29T00:02:37;1.85;;;0.80;;
86756;SDS011;77516;50.006;9.176;2024-03-29T00:05:03;2.88;;;0.90;;
86756;SDS011;77516;50.006;9.176;2024-03-29T00:07:28;1.85;;;0.98;;
86756;SDS011;77516;50.006;9.176;2024-03-29T00:09:54;1.92;;;0.63;;
86756;SDS011;77516;50.006;9.176;2024-03-29T00:12:19;2.42;;;0.70;;
86756;SDS011;77516;50.006;9.176;2024-03-29T00:14:44;1.85;;;0.75;;
86756;SDS011;77516;50.006;9.176;2024-03-29T00:17:10;4.15;;;1.55;;
86756;SDS011;77516;50.006;9.176;2024-03-29T00:19:35;3.85;;;0.73;;
86756;SDS011;77516;50.006;9.176;2024-03-29T00:22:00;2.30;;;1.00;;
86756;SDS011;77516;50.006;9.176;2024-03-29T00:24:26;2.53;;;0.82;;
86756;SDS011;77516;50.006;9.176;2024-03-29T00:26:52;2.90;;;0.95;;
86756;SDS011;77516;50.006;9.176;2024-03-29T00:29:17;3.03;;;0.95;;
86756;SDS011;77516;50.006;9.176;2024-03-29T00:31:42;1.73;;;0.63;;
86756;SDS011;77516;50.006;9.176;2024-03-29T00:34:08;1.35;;;0.57;;
86756;SDS011;77516;50.006;9.176;2024-03-29T00:36:33;5.53;;;0.70;;
86756;SDS011;77516;50.006;9.176;2024-03-29T00:38:59;3.40;;;0.63;;
86756;SDS011;77516;50.006;9.176;2024-03-29T00:41:24;1.80;;;0.77;;
86756;SDS011;77516;50.006;9.176;2024-03-29T00:43:49;2.22;;;0.50;;
86756;SDS011;77516;50.006;9.176;2024-03-29T00:46:15;2.78;;;0.82;;
86756;SDS011;77516;50.006;9.176;2024-03-29T00:48:40;2.65;;;0.68;;
86756;SDS011;77516;50.006;9.176;2024-03-29T00:51:07;2.13;;;0.55;;
86756;SDS011;77516;50.006;9.176;2024-03-29T00:53:32;5.85;;;0.70;;
86756;SDS011;77516;50.006;9.176;2024-03-29T00:55:58;2.53;;;0.95;;
86756;SDS011;77516;50.006;9.176;2024-03-29T00:58:23;2.50;;;0.68;;
86756;SDS011;77516;50.006;9.176;2024-03-29T01:00:48;2.45;;;0.80;;
86756;SDS011;77516;50.006;9.176;2024-03-29T01:03:14;1.50;;;0.90;;
86756;SDS011;77516;50.006;9.176;2024-03-29T01:05:39;5.15;;;0.90;;
86756;SDS011;77516;50.006;9.176;2024-03-29T01:08:05;2.63;;;0.82;;
86756;SDS011;77516;50.006;9.176;2024-03-29T01:10:30;1.98;;;0.77;;
86756;SDS011;77516;50.006;9.176;2024-03-29T01:12:56;3.42;;;0.90;;
86756;SDS011;77516;50.006;9.176;2024-03-29T01:15:21;2.80;;;0.93;;
86756;SDS011;77516;50.006;9.176;2024-03-29T01:17:46;2.53;;;0.73;;
86756;SDS011;77516;50.006;9.176;2024-03-29T01:20:12;1.60;;;0.82;;
86756;SDS011;77516;50.006;9.176;2024-03-29T01:22:37;4.63;;;0.85;;
86756;SDS011;77516;50.006;9.176;2024-03-29T01:25:03;3.42;;;1.42;;
86756;SDS011;77516;50.006;9.176;2024-03-29T01:27:32;3.58;;;0.95;;
86756;SDS011;77516;50.006;9.176;2024-03-29T01:29:58;3.75;;;0.80;;
86756;SDS011;77516;50.006;9.176;2024-03-29T01:32:23;2.60;;;0.70;;
86756;SDS011;77516;50.006;9.176;2024-03-29T01:34:49;2.78;;;0.70;;
86756;SDS011;77516;50.006;9.176;2024-03-29T01:37:14;2.10;;;0.90;;
86756;SDS011;77516;50.006;9.176;2024-03-29T01:39:39;1.15;;;0.60;;
86756;SDS011;77516;50.006;9.176;2024-03-29T01:42:05;3.13;;;0.70;;
86756;SDS011;77516;50.006;9.176;2024-03-29T01:44:30;2.65;;;0.60;;
86756;SDS011;77516;50.006;9.176;2024-03-29T01:46:56;2.67;;;0.73;;
86756;SDS011;77516;50.006;9.176;2024-03-29T01:49:21;1.35;;;0.70;;
86756;SDS011;77516;50.006;9.176;2024-03-29T01:51:47;2.15;;;0.63;;
86756;SDS011;77516;50.006;9.176;2024-03-29T01:54:12;1.85;;;0.63;;
86756;SDS011;77516;50.006;9.176;2024-03-29T01:56:39;1.40;;;0.68;;
86756;SDS011;77516;50.006;9.176;2024-03-29T01:59:04;1.45;;;0.65;;
86756;SDS011;77516;50.006;9.176;2024-03-29T02:01:36;3.53;;;0.88;;
86756;SDS011;77516;50.006;9.176;2024-03-29T02:04:01;1.67;;;0.70;;
86756;SDS011;77516;50.006;9.176;2024-03-29T02:06:27;3.45;;;0.80;;
86756;SDS011;77516;50.006;9.176;2024-03-29T02:08:53;1.73;;;0.85;;
86756;SDS011;77516;50.006;9.176;2024-03-29T02:11:19;1.45;;;0.60;;
86756;SDS011;77516;50.006;9.176;2024-03-29T02:13:45;3.83;;;1.35;;
86756;SDS011;77516;50.006;9.176;2024-03-29T02:16:11;1.48;;;0.55;;
86756;SDS011;77516;50.006;9.176;2024-03-29T02:18:36;1.25;;;0.60;;
86756;SDS011;77516;50.006;9.176;2024-03-29T02:21:02;1.50;;;0.80;;
86756;SDS011;77516;50.006;9.176;2024-03-29T02:23:27;4.38;;;0.75;;
86756;SDS011;77516;50.006;9.176;2024-03-29T02:25:54;2.47;;;0.73;;
86756;SDS011;77516;50.006;9.176;2024-03-29T02:28:21;2.15;;;0.85;;
86756;SDS011;77516;50.006;9.176;2024-03-29T02:30:47;1.23;;;0.52;;
86756;SDS011;77516;50.006;9.176;2024-03-29T02:33:12;3.80;;;1.00;;
86756;SDS011;77516;50.006;9.176;2024-03-29T02:35:38;2.50;;;0.90;;
86756;SDS011;77516;50.006;9.176;2024-03-29T02:38:03;3.03;;;0.82;;
86756;SDS011;77516;50.006;9.176;2024-03-29T02:40:29;3.28;;;0.90;;
86756;SDS011;77516;50.006;9.176;2024-03-29T02:42:54;1.88;;;0.70;;
86756;SDS011;77516;50.006;9.176;2024-03-29T02:45:19;3.45;;;1.17;;
86756;SDS011;77516;50.006;9.176;2024-03-29T02:47:45;1.52;;;0.60;;
86756;SDS011;77516;50.006;9.176;2024-03-29T02:50:12;3.28;;;0.70;;
86756;SDS011;77516;50.006;9.176;2024-03-29T02:52:38;3.33;;;1.17;;
86756;SDS011;77516;50.006;9.176;2024-03-29T02:55:04;1.95;;;0.77;;
86756;SDS011;77516;50.006;9.176;2024-03-29T02:57:29;2.33;;;0.90;;
86756;SDS011;77516;50.006;9.176;2024-03-29T02:59:55;3.38;;;1.20;;
86756;SDS011;77516;50.006;9.176;2024-03-29T03:02:20;3.00;;;0.93;;
86756;SDS011;77516;50.006;9.176;2024-03-29T03:04:46;2.85;;;1.33;;
86756;SDS011;77516;50.006;9.176;2024-03-29T03:07:11;3.65;;;0.98;;
86756;SDS011;77516;50.006;9.176;2024-03-29T03:09:55;2.70;;;1.00;;
86756;SDS011;77516;50.006;9.176;2024-03-29T03:12:39;2.10;;;0.93;;
86756;SDS011;77516;50.006;9.176;2024-03-29T03:15:04;2.08;;;0.80;;
86756;SDS011;77516;50.006;9.176;2024-03-29T03:17:30;4.97;;;1.33;;
86756;SDS011;77516;50.006;9.176;2024-03-29T03:19:56;2.03;;;0.70;;
86756;SDS011;77516;50.006;9.176;2024-03-29T03:22:22;3.15;;;0.80;;
86756;SDS011;77516;50.006;9.176;2024-03-29T03:24:47;4.47;;;0.80;;
86756;SDS011;77516;50.006;9.176;2024-03-29T03:27:13;1.75;;;0.82;;
86756;SDS011;77516;50.006;9.176;2024-03-29T03:29:39;2.40;;;0.70;;
86756;SDS011;77516;50.006;9.176;2024-03-29T03:32:04;1.73;;;0.77;;
86756;SDS011;77516;50.006;9.176;2024-03-29T03:34:31;2.83;;;0.70;;
86756;SDS011;77516;50.006;9.176;2024-03-29T03:36:57;1.63;;;0.82;;
86756;SDS011;77516;50.006;9.176;2024-03-29T03:39:22;1.60;;;0.70;;
86756;SDS011;77516;50.006;9.176;2024-03-29T03:41:47;2.70;;;0.75;;
86756;SDS011;77516;50.006;9.176;2024-03-29T03:44:13;1.60;;;0.60;;
86756;SDS011;77516;50.006;9.176;2024-03-29T03:46:38;3.33;;;1.00;;
86756;SDS011;77516;50.006;9.176;2024-03-29T03:49:03;1.50;;;0.80;;
86756;SDS011;77516;50.006;9.176;2024-03-29T03:51:29;2.47;;;0.82;;
86756;SDS011;77516;50.006;9.176;2024-03-29T03:53:54;2.20;;;0.65;;
86756;SDS011;77516;50.006;9.176;2024-03-29T03:56:20;1.70;;;0.63;;
86756;SDS011;77516;50.006;9.176;2024-03-29T03:58:45;1.20;;;0.68;;
86756;SDS011;77516;50.006;9.176;2024-03-29T04:01:10;2.10;;;0.70;;
86756;SDS011;77516;50.006;9.176;2024-03-29T04:03:36;2.72;;;0.60;;
86756;SDS011;77516;50.006;9.176;2024-03-29T04:06:04;2.17;;;0.52;;
86756;SDS011;77516;50.006;9.176;2024-03-29T04:08:30;3.05;;;0.50;;
86756;SDS011;77516;50.006;9.176;2024-03-29T04:10:56;5.32;;;0.73;;
86756;SDS011;77516;50.006;9.176;2024-03-29T04:13:22;2.90;;;0.65;;
86756;SDS011;77516;50.006;9.176;2024-03-29T04:15:47;4.68;;;1.10;;
86756;SDS011;77516;50.006;9.176;2024-03-29T04:18:13;2.47;;;0.60;;
86756;SDS011;77516;50.006;9.176;2024-03-29T04:20:38;1.52;;;0.70;;
86756;SDS011;77516;50.006;9.176;2024-03-29T04:23:04;2.30;;;0.73;;
86756;SDS011;77516;50.006;9.176;2024-03-29T04:27:55;3.03;;;0.50;;
86756;SDS011;77516;50.006;9.176;2024-03-29T04:30:21;1.90;;;0.70;;
86756;SDS011;77516;50.006;9.176;2024-03-29T04:32:46;1.10;;;0.70;;
86756;SDS011;77516;50.006;9.176;2024-03-29T04:35:12;1.17;;;0.73;;
86756;SDS011;77516;50.006;9.176;2024-03-29T04:37:37;2.08;;;0.50;;
86756;SDS011;77516;50.006;9.176;2024-03-29T04:40:03;2.97;;;0.70;;
86756;SDS011;77516;50.006;9.176;2024-03-29T04:42:28;2.88;;;1.02;;
86756;SDS011;77516;50.006;9.176;2024-03-29T04:44:54;2.88;;;0.75;;
86756;SDS011;77516;50.006;9.176;2024-03-29T04:47:19;1.90;;;0.82;;
86756;SDS011;77516;50.006;9.176;2024-03-29T04:49:45;1.95;;;0.60;;
86756;SDS011;77516;50.006;9.176;2024-03-29T04:52:10;1.00;;;0.55;;
86756;SDS011;77516;50.006;9.176;2024-03-29T04:54:35;1.65;;;0.70;;
86756;SDS011;77516;50.006;9.176;2024-03-29T04:57:01;2.25;;;0.68;;
86756;SDS011;77516;50.006;9.176;2024-03-29T04:59:28;1.48;;;0.60;;
86756;SDS011;77516;50.006;9.176;2024-03-29T05:01:54;1.38;;;0.50;;
86756;SDS011;77516;50.006;9.176;2024-03-29T05:04:21;2.33;;;0.50;;
86756;SDS011;77516;50.006;9.176;2024-03-29T05:06:53;1.38;;;0.70;;
86756;SDS011;77516;50.006;9.176;2024-03-29T05:09:20;1.73;;;0.50;;
86756;SDS011;77516;50.006;9.176;2024-03-29T05:11:46;1.58;;;0.50;;
86756;SDS011;77516;50.006;9.176;2024-03-29T05:14:14;2.42;;;0.50;;
86756;SDS011;77516;50.006;9.176;2024-03-29T05:16:41;1.05;;;0.68;;
86756;SDS011;77516;50.006;9.176;2024-03-29T05:19:07;1.58;;;0.60;;
86756;SDS011;77516;50.006;9.176;2024-03-29T05:21:32;2.15;;;0.85;;
86756;SDS011;77516;50.006;9.176;2024-03-29T05:23:58;1.70;;;1.02;;
86756;SDS011;77516;50.006;9.176;2024-03-29T05:26:23;1.13;;;0.40;;
86756;SDS011;77516;50.006;9.176;2024-03-29T05:28:49;1.25;;;0.70;;
86756;SDS011;77516;50.006;9.176;2024-03-29T05:31:14;0.95;;;0.45;;
86756;SDS011;77516;50.006;9.176;2024-03-29T05:33:40;2.60;;;0.93;;
86756;SDS011;77516;50.006;9.176;2024-03-29T05:36:06;1.35;;;0.57;;
86756;SDS011;77516;50.006;9.176;2024-03-29T05:38:33;1.30;;;0.60;;
86756;SDS011;77516;50.006;9.176;2024-03-29T05:40:59;2.20;;;0.63;;
86756;SDS011;77516;50.006;9.176;2024-03-29T05:43:24;1.77;;;0.73;;
86756;SDS011;77516;50.006;9.176;2024-03-29T05:45:52;3.72;;;0.75;;
86756;SDS011;77516;50.006;9.176;2024-03-29T05:48:17;1.30;;;0.70;;
86756;SDS011;77516;50.006;9.176;2024-03-29T05:50:44;2.67;;;0.68;;
86756;SDS011;77516;50.006;9.176;2024-03-29T05:53:09;2.33;;;0.60;;
86756;SDS011;77516;50.006;9.176;2024-03-29T05:55:35;2.10;;;0.68;;
86756;SDS011;77516;50.006;9.176;2024-03-29T05:58:00;1.52;;;0.50;;
86756;SDS011;77516;50.006;9.176;2024-03-29T06:00:26;1.65;;;0.77;;
86756;SDS011;77516;50.006;9.176;2024-03-29T06:02:52;2.05;;;0.90;;
86756;SDS011;77516;50.006;9.176;2024-03-29T06:05:17;2.33;;;0.75;;
86756;SDS011;77516;50.006;9.176;2024-03-29T06:07:43;4.68;;;1.40;;
86756;SDS011;77516;50.006;9.176;2024-03-29T06:10:09;3.45;;;0.93;;
86756;SDS011;77516;50.006;9.176;2024-03-29T06:12:35;3.10;;;1.02;;
86756;SDS011;77516;50.006;9.176;2024-03-29T06:15:03;1.55;;;0.50;;
86756;SDS011;77516;50.006;9.176;2024-03-29T06:17:48;3.88;;;0.70;;
86756;SDS011;77516;50.006;9.176;2024-03-29T06:20:13;1.27;;;0.70;;
86756;SDS011;77516;50.006;9.176;2024-03-29T06:22:39;2.17;;;0.60;;
86756;SDS011;77516;50.006;9.176;2024-03-29T06:25:04;1.40;;;0.60;;
86756;SDS011;77516;50.006;9.176;2024-03-29T06:27:33;1.42;;;0.57;;
86756;SDS011;77516;50.006;9.176;2024-03-29T06:29:59;3.10;;;0.70;;
86756;SDS011;77516;50.006;9.176;2024-03-29T06:32:24;1.45;;;0.93;;
86756;SDS011;77516;50.006;9.176;2024-03-29T06:34:50;1.95;;;0.80;;
86756;SDS011;77516;50.006;9.176;2024-03-29T06:37:15;1.63;;;0.95;;
86756;SDS011;77516;50.006;9.176;2024-03-29T06:39:40;0.88;;;0.50;;
86756;SDS011;77516;50.006;9.176;2024-03-29T06:42:08;2.13;;;0.70;;
86756;SDS011;77516;50.006;9.176;2024-03-29T06:44:33;2.60;;;0.60;;
86756;SDS011;77516;50.006;9.176;2024-03-29T06:46:59;1.88;;;0.40;;
86756;SDS011;77516;50.006;9.176;2024-03-29T06:49:24;2.55;;;0.60;;
86756;SDS011;77516;50.006;9.176;2024-03-29T06:51:50;1.92;;;0.70;;
86756;SDS011;77516;50.006;9.176;2024-03-29T06:54:15;1.95;;;1.10;;
86756;SDS011;77516;50.006;9.176;2024-03-29T06:56:41;2.38;;;1.00;;
86756;SDS011;77516;50.006;9.176;2024-03-29T06:59:06;1.77;;;0.93;;
86756;SDS011;77516;50.006;9.176;2024-03-29T07:01:33;2.97;;;0.75;;
86756;SDS011;77516;50.006;9.176;2024-03-29T07:03:58;2.30;;;0.95;;
86756;SDS011;77516;50.006;9.176;2024-03-29T07:06:24;2.22;;;0.80;;
86756;SDS011;77516;50.006;9.176;2024-03-29T07:08:49;1.92;;;0.90;;
86756;SDS011;77516;50.006;9.176;2024-03-29T07:11:15;2.25;;;0.80;;
86756;SDS011;77516;50.006;9.176;2024-03-29T07:13:40;1.63;;;0.80;;
86756;SDS011;77516;50.006;9.176;2024-03-29T07:16:06;2.25;;;1.00;;
86756;SDS011;77516;50.006;9.176;2024-03-29T07:18:34;1.85;;;0.82;;
86756;SDS011;77516;50.006;9.176;2024-03-29T07:20:59;1.77;;;0.70;;
86756;SDS011;77516;50.006;9.176;2024-03-29T07:23:25;3.65;;;0.73;;
86756;SDS011;77516;50.006;9.176;2024-03-29T07:26:23;1.50;;;0.60;;
86756;SDS011;77516;50.006;9.176;2024-03-29T07:28:41;1.63;;;0.63;;
86756;SDS011;77516;50.006;9.176;2024-03-29T07:31:07;2.03;;;0.70;;
86756;SDS011;77516;50.006;9.176;2024-03-29T07:33:33;2.92;;;0.90;;
86756;SDS011;77516;50.006;9.176;2024-03-29T07:35:58;4.38;;;1.67;;
86756;SDS011;77516;50.006;9.176;2024-03-29T07:38:24;1.27;;;0.70;;
86756;SDS011;77516;50.006;9.176;2024-03-29T07:40:50;3.35;;;0.85;;
86756;SDS011;77516;50.006;9.176;2024-03-29T07:43:16;3.70;;;1.13;;
86756;SDS011;77516;50.006;9.176;2024-03-29T07:45:43;3.42;;;1.30;;
86756;SDS011;77516;50.006;9.176;2024-03-29T07:48:11;1.73;;;0.70;;
86756;SDS011;77516;50.006;9.176;2024-03-29T07:50:38;2.30;;;1.08;;
86756;SDS011;77516;50.006;9.176;2024-03-29T07:53:04;2.50;;;0.88;;
86756;SDS011;77516;50.006;9.176;2024-03-29T07:55:29;1.70;;;0.60;;
86756;SDS011;77516;50.006;9.176;2024-03-29T07:57:55;1.73;;;0.90;;
86756;SDS011;77516;50.006;9.176;2024-03-29T08:00:21;2.67;;;0.90;;
86756;SDS011;77516;50.006;9.176;2024-03-29T08:02:46;2.72;;;0.93;;
86756;SDS011;77516;50.006;9.176;2024-03-29T08:05:12;2.05;;;0.85;;
86756;SDS011;77516;50.006;9.176;2024-03-29T08:07:37;1.45;;;0.60;;
86756;SDS011;77516;50.006;9.176;2024-03-29T08:10:02;1.25;;;0.60;;
86756;SDS011;77516;50.006;9.176;2024-03-29T08:12:28;1.42;;;0.70;;
86756;SDS011;77516;50.006;9.176;2024-03-29T08:14:53;1.77;;;0.98;;
86756;SDS011;77516;50.006;9.176;2024-03-29T08:17:19;1.67;;;0.80;;
86756;SDS011;77516;50.006;9.176;2024-03-29T08:19:44;3.00;;;1.58;;
86756;SDS011;77516;50.006;9.176;2024-03-29T08:22:10;3.08;;;1.52;;
86756;SDS011;77516;50.006;9.176;2024-03-29T08:24:38;2.80;;;1.17;;
86756;SDS011;77516;50.006;9.176;2024-03-29T08:27:03;8.32;;;4.82;;
86756;SDS011;77516;50.006;9.176;2024-03-29T08:29:29;5.30;;;2.30;;
86756;SDS011;77516;50.006;9.176;2024-03-29T08:31:54;4.13;;;1.90;;
86756;SDS011;77516;50.006;9.176;2024-03-29T08:34:20;2.80;;;1.55;;
86756;SDS011;77516;50.006;9.176;2024-03-29T08:36:45;1.80;;;0.93;;
86756;SDS011;77516;50.006;9.176;2024-03-29T08:39:11;2.03;;;0.85;;
86756;SDS011;77516;50.006;9.176;2024-03-29T08:41:36;1.92;;;1.08;;
86756;SDS011;77516;50.006;9.176;2024-03-29T08:44:02;2.22;;;0.60;;
86756;SDS011;77516;50.006;9.176;2024-03-29T08:46:27;2.63;;;1.30;;
86756;SDS011;77516;50.006;9.176;2024-03-29T08:48:53;2.08;;;1.05;;
86756;SDS011;77516;50.006;9.176;2024-03-29T08:51:20;5.25;;;2.63;;
86756;SDS011;77516;50.006;9.176;2024-03-29T08:53:45;4.57;;;2.30;;
86756;SDS011;77516;50.006;9.176;2024-03-29T08:56:12;3.13;;;1.10;;
86756;SDS011;77516;50.006;9.176;2024-03-29T08:58:37;3.70;;;1.35;;
86756;SDS011;77516;50.006;9.176;2024-03-29T09:01:03;3.45;;;1.23;;
86756;SDS011;77516;50.006;9.176;2024-03-29T09:05:54;2.60;;;0.90;;
86756;SDS011;77516;50.006;9.176;2024-03-29T09:08:20;3.92;;;1.23;;
86756;SDS011;77516;50.006;9.176;2024-03-29T09:10:45;1.63;;;1.20;;
86756;SDS011;77516;50.006;9.176;2024-03-29T09:13:11;1.73;;;0.90;;
86756;SDS011;77516;50.006;9.176;2024-03-29T09:15:36;2.05;;;1.42;;
86756;SDS011;77516;50.006;9.176;2024-03-29T09:18:02;3.88;;;1.08;;
86756;SDS011;77516;50.006;9.176;2024-03-29T09:20:35;4.00;;;1.58;;
86756;SDS011;77516;50.006;9.176;2024-03-29T09:23:01;3.65;;;1.20;;
86756;SDS011;77516;50.006;9.176;2024-03-29T09:25:26;6.80;;;3.10;;
86756;SDS011;77516;50.006;9.176;2024-03-29T09:27:51;2.13;;;0.95;;
86756;SDS011;77516;50.006;9.176;2024-03-29T09:30:17;2.13;;;0.95;;
86756;SDS011;77516;50.006;9.176;2024-03-29T09:32:44;3.45;;;1.00;;
86756;SDS011;77516;50.006;9.176;2024-03-29T09:35:10;3.90;;;1.05;;
86756;SDS011;77516;50.006;9.176;2024-03-29T09:37:35;2.40;;;0.93;;
86756;SDS011;77516;50.006;9.176;2024-03-29T09:40:04;2.55;;;0.82;;
86756;SDS011;77516;50.006;9.176;2024-03-29T09:42:31;3.75;;;1.00;;
86756;SDS011;77516;50.006;9.176;2024-03-29T09:44:57;2.40;;;1.25;;
86756;SDS011;77516;50.006;9.176;2024-03-29T09:47:24;1.95;;;1.15;;
86756;SDS011;77516;50.006;9.176;2024-03-29T09:49:50;3.10;;;1.15;;
86756;SDS011;77516;50.006;9.176;2024-03-29T09:52:16;2.10;;;1.00;;
86756;SDS011;77516;50.006;9.176;2024-03-29T09:54:43;4.80;;;1.17;;
86756;SDS011;77516;50.006;9.176;2024-03-29T09:57:09;3.53;;;1.20;;
86756;SDS011;77516;50.006;9.176;2024-03-29T09:59:35;3.08;;;0.85;;
86756;SDS011;77516;50.006;9.176;2024-03-29T10:02:00;2.95;;;0.82;;
86756;SDS011;77516;50.006;9.176;2024-03-29T10:04:29;3.33;;;1.00;;
86756;SDS011;77516;50.006;9.176;2024-03-29T10:06:55;5.63;;;1.77;;
86756;SDS011;77516;50.006;9.176;2024-03-29T10:09:22;2.10;;;1.20;;
86756;SDS011;77516;50.006;9.176;2024-03-29T10:11:47;4.10;;;1.33;;
86756;SDS011;77516;50.006;9.176;2024-03-29T10:14:13;4.43;;;1.08;;
86756;SDS011;77516;50.006;9.176;2024-03-29T10:16:38;4.55;;;1.70;;
86756;SDS011;77516;50.006;9.176;2024-03-29T10:19:04;2.95;;;1.38;;
86756;SDS011;77516;50.006;9.176;2024-03-29T10:21:31;4.03;;;1.70;;
86756;SDS011;77516;50.006;9.176;2024-03-29T10:23:57;3.63;;;1.40;;
86756;SDS011;77516;50.006;9.176;2024-03-29T10:26:22;2.85;;;1.42;;
86756;SDS011;77516;50.006;9.176;2024-03-29T10:28:48;2.83;;;1.27;;
86756;SDS011;77516;50.006;9.176;2024-03-29T10:31:14;2.63;;;1.00;;
86756;SDS011;77516;50.006;9.176;2024-03-29T10:33:41;2.67;;;1.25;;
86756;SDS011;77516;50.006;9.176;2024-03-29T10:36:08;3.95;;;1.50;;
86756;SDS011;77516;50.006;9.176;2024-03-29T10:38:37;2.35;;;1.40;;
86756;SDS011;77516;50.006;9.176;2024-03-29T10:41:02;2.60;;;0.90;;
86756;SDS011;77516;50.006;9.176;2024-03-29T10:43:31;5.10;;;1.23;;
86756;SDS011;77516;50.006;9.176;2024-03-29T10:45:57;3.42;;;0.95;;
86756;SDS011;77516;50.006;9.176;2024-03-29T10:48:27;3.38;;;1.27;;
86756;SDS011;77516;50.006;9.176;2024-03-29T10:50:54;2.15;;;0.85;;
86756;SDS011;77516;50.006;9.176;2024-03-29T10:53:20;2.50;;;1.00;;
86756;SDS011;77516;50.006;9.176;2024-03-29T10:55:47;2.88;;;1.65;;
86756;SDS011;77516;50.006;9.176;2024-03-29T10:58:15;3.50;;;1.42;;
86756;SDS011;77516;50.006;9.176;2024-03-29T11:00:46;4.20;;;1.20;;
86756;SDS011;77516;50.006;9.176;2024-03-29T11:03:14;4.45;;;1.50;;
86756;SDS011;77516;50.006;9.176;2024-03-29T11:05:47;5.40;;;1.00;;
86756;SDS011;77516;50.006;9.176;2024-03-29T11:08:16;3.88;;;1.50;;
86756;SDS011;77516;50.006;9.176;2024-03-29T11:10:45;3.78;;;1.00;;
86756;SDS011;77516;50.006;9.176;2024-03-29T11:13:25;2.63;;;1.20;;
86756;SDS011;77516;50.006;9.176;2024-03-29T11:15:56;2.63;;;0.90;;
86756;SDS011;77516;50.006;9.176;2024-03-29T11:18:21;4.40;;;1.00;;
86756;SDS011;77516;50.006;9.176;2024-03-29T11:20:49;3.97;;;1.42;;
86756;SDS011;77516;50.006;9.176;2024-03-29T11:23:17;4.60;;;1.20;;
86756;SDS011;77516;50.006;9.176;2024-03-29T11:25:51;4.55;;;1.42;;
86756;SDS011;77516;50.006;9.176;2024-03-29T11:28:29;2.85;;;1.52;;
86756;SDS011;77516;50.006;9.176;2024-03-29T11:31:05;10.65;;;6.32;;
86756;SDS011;77516;50.006;9.176;2024-03-29T11:33:35;6.78;;;4.72;;
86756;SDS011;77516;50.006;9.176;2024-03-29T11:36:11;4.00;;;1.95;;
86756;SDS011;77516;50.006;9.176;2024-03-29T11:38:38;2.92;;;1.35;;
86756;SDS011;77516;50.006;9.176;2024-03-29T11:41:04;3.92;;;1.65;;
86756;SDS011;77516;50.006;9.176;2024-03-29T11:43:35;3.85;;;1.75;;
86756;SDS011;77516;50.006;9.176;2024-03-29T11:46:02;4.35;;;1.05;;
86756;SDS011;77516;50.006;9.176;2024-03-29T11:48:31;3.95;;;1.20;;
86756;SDS011;77516;50.006;9.176;2024-03-29T11:50:56;4.80;;;1.92;;
86756;SDS011;77516;50.006;9.176;2024-03-29T11:53:22;3.00;;;2.03;;
86756;SDS011;77516;50.006;9.176;2024-03-29T11:55:48;3.90;;;1.50;;
86756;SDS011;77516;50.006;9.176;2024-03-29T11:58:18;3.38;;;1.67;;
86756;SDS011;77516;50.006;9.176;2024-03-29T12:00:44;4.13;;;1.98;;
86756;SDS011;77516;50.006;9.176;2024-03-29T12:03:12;4.18;;;1.40;;
86756;SDS011;77516;50.006;9.176;2024-03-29T12:05:38;4.22;;;1.52;;
86756;SDS011;77516;50.006;9.176;2024-03-29T12:08:03;3.20;;;1.52;;
86756;SDS011;77516;50.006;9.176;2024-03-29T12:10:29;2.30;;;1.00;;
86756;SDS011;77516;50.006;9.176;2024-03-29T12:12:57;2.97;;;1.38;;
86756;SDS011;77516;50.006;9.176;2024-03-29T12:15:23;3.30;;;1.20;;
86756;SDS011;77516;50.006;9.176;2024-03-29T12:17:53;3.03;;;1.58;;
86756;SDS011;77516;50.006;9.176;2024-03-29T12:20:20;2.53;;;1.58;;
86756;SDS011;77516;50.006;9.176;2024-03-29T12:22:45;3.63;;;1.10;;
86756;SDS011;77516;50.006;9.176;2024-03-29T12:25:11;3.95;;;1.60;;
86756;SDS011;77516;50.006;9.176;2024-03-29T12:27:36;2.33;;;1.08;;
86756;SDS011;77516;50.006;9.176;2024-03-29T12:30:02;2.92;;;1.58;;
86756;SDS011;77516;50.006;9.176;2024-03-29T12:32:28;3.83;;;1.35;;
86756;SDS011;77516;50.006;9.176;2024-03-29T12:34:55;3.65;;;2.13;;
86756;SDS011;77516;50.006;9.176;2024-03-29T12:37:21;4.63;;;2.83;;
86756;SDS011;77516;50.006;9.176;2024-03-29T12:39:47;4.78;;;1.48;;
86756;SDS011;77516;50.006;9.176;2024-03-29T12:42:16;2.65;;;1.45;;
86756;SDS011;77516;50.006;9.176;2024-03-29T12:44:42;3.65;;;1.40;;
86756;SDS011;77516;50.006;9.176;2024-03-29T12:47:07;3.97;;;1.83;;
86756;SDS011;77516;50.006;9.176;2024-03-29T12:49:33;2.92;;;1.00;;
86756;SDS011;77516;50.006;9.176;2024-03-29T12:51:58;3.47;;;1.15;;
86756;SDS011;77516;50.006;9.176;2024-03-29T12:54:23;3.25;;;1.77;;
86756;SDS011;77516;50.006;9.176;2024-03-29T12:59:15;2.80;;;1.50;;
86756;SDS011;77516;50.006;9.176;2024-03-29T13:01:40;4.30;;;1.67;;
86756;SDS011;77516;50.006;9.176;2024-03-29T13:04:06;5.93;;;2.20;;
86756;SDS011;77516;50.006;9.176;2024-03-29T13:06:32;5.90;;;1.48;;
86756;SDS011;77516;50.006;9.176;2024-03-29T13:08:57;4.53;;;2.83;;
86756;SDS011;77516;50.006;9.176;2024-03-29T13:11:23;3.60;;;2.08;;
86756;SDS011;77516;50.006;9.176;2024-03-29T13:13:48;3.42;;;1.60;;
86756;SDS011;77516;50.006;9.176;2024-03-29T13:16:14;3.53;;;1.92;;
86756;SDS011;77516;50.006;9.176;2024-03-29T13:18:39;3.72;;;1.80;;
86756;SDS011;77516;50.006;9.176;2024-03-29T13:21:05;5.22;;;2.75;;
86756;SDS011;77516;50.006;9.176;2024-03-29T13:23:30;4.57;;;2.65;;
86756;SDS011;77516;50.006;9.176;2024-03-29T13:25:57;6.25;;;2.92;;
86756;SDS011;77516;50.006;9.176;2024-03-29T13:28:23;6.45;;;2.65;;
86756;SDS011;77516;50.006;9.176;2024-03-29T13:30:49;6.38;;;2.75;;
86756;SDS011;77516;50.006;9.176;2024-03-29T13:33:16;5.70;;;3.03;;
86756;SDS011;77516;50.006;9.176;2024-03-29T13:35:42;5.03;;;2.63;;
86756;SDS011;77516;50.006;9.176;2024-03-29T13:38:09;5.07;;;2.53;;
86756;SDS011;77516;50.006;9.176;2024-03-29T13:40:34;3.80;;;2.33;;
86756;SDS011;77516;50.006;9.176;2024-03-29T13:42:59;4.38;;;2.45;;
86756;SDS011;77516;50.006;9.176;2024-03-29T13:45:25;5.68;;;2.47;;
86756;SDS011;77516;50.006;9.176;2024-03-29T13:47:52;5.13;;;2.47;;
86756;SDS011;77516;50.006;9.176;2024-03-29T13:50:18;3.83;;;2.30;;
86756;SDS011;77516;50.006;9.176;2024-03-29T13:52:43;4.25;;;2.20;;
86756;SDS011;77516;50.006;9.176;2024-03-29T13:55:09;3.83;;;2.00;;
86756;SDS011;77516;50.006;9.176;2024-03-29T13:57:34;6.47;;;2.67;;
86756;SDS011;77516;50.006;9.176;2024-03-29T14:00:00;6.82;;;2.85;;
86756;SDS011;77516;50.006;9.176;2024-03-29T14:02:25;11.52;;;6.93;;
86756;SDS011;77516;50.006;9.176;2024-03-29T14:04:52;6.47;;;2.92;;
86756;SDS011;77516;50.006;9.176;2024-03-29T14:07:18;6.20;;;3.78;;
86756;SDS011;77516;50.006;9.176;2024-03-29T14:09:44;5.68;;;2.72;;
86756;SDS011;77516;50.006;9.176;2024-03-29T14:12:13;6.30;;;3.10;;
86756;SDS011;77516;50.006;9.176;2024-03-29T14:14:39;4.97;;;2.40;;
86756;SDS011;77516;50.006;9.176;2024-03-29T14:17:06;5.55;;;2.83;;
86756;SDS011;77516;50.006;9.176;2024-03-29T14:19:33;9.02;;;3.25;;
86756;SDS011;77516;50.006;9.176;2024-03-29T14:21:59;4.22;;;2.15;;
86756;SDS011;77516;50.006;9.176;2024-03-29T14:26:52;6.03;;;2.40;;
86756;SDS011;77516;50.006;9.176;2024-03-29T14:29:17;4.38;;;2.55;;
86756;SDS011;77516;50.006;9.176;2024-03-29T14:31:46;5.18;;;2.58;;
86756;SDS011;77516;50.006;9.176;2024-03-29T14:36:37;5.57;;;2.93;;
86756;SDS011;77516;50.006;9.176;2024-03-29T14:39:03;6.07;;;2.65;;
86756;SDS011;77516;50.006;9.176;2024-03-29T14:41:28;4.15;;;2.10;;
86756;SDS011;77516;50.006;9.176;2024-03-29T14:43:53;5.28;;;3.08;;
86756;SDS011;77516;50.006;9.176;2024-03-29T14:46:20;4.60;;;2.67;;
86756;SDS011;77516;50.006;9.176;2024-03-29T14:48:46;6.45;;;2.88;;
86756;SDS011;77516;50.006;9.176;2024-03-29T14:51:12;5.80;;;2.60;;
86756;SDS011;77516;50.006;9.176;2024-03-29T14:53:37;5.25;;;3.47;;